sensor_id;sensor_type;location;lat;lon;timestamp;P1;durP1;ratioP1;P2;durP2;ratioP2
41446;SDS011;27185;52.040;4.490;2023-04-24T00:01:01;2.00;;;1.08;;
41446;SDS011;27185;52.040;4.490;2023-04-24T00:03:47;3.40;;;0.70;;
41446;SDS011;27185;52.040;4.490;2023-04-24T00:06:32;3.78;;;0.88;;
41446;SDS011;27185;52.040;4.490;2023-04-24T00:09:18;4.55;;;0.85;;
41446;SDS011;27185;52.040;4.490;2023-04-24T00:12:04;2.75;;;0.80;;
41446;SDS011;27185;52.040;4.490;2023-04-24T00:14:50;1.20;;;0.65;;
41446;SDS011;27185;52.040;4.490;2023-04-24T00:17:35;2.65;;;0.88;;
41446;SDS011;27185;52.040;4.490;2023-04-24T00:20:21;1.90;;;0.63;;
41446;SDS011;27185;52.040;4.490;2023-04-24T00:23:07;3.70;;;0.70;;
41446;SDS011;27185;52.040;4.490;2023-04-24T00:25:53;3.10;;;0.60;;
41446;SDS011;27185;52.040;4.490;2023-04-24T00:28:38;3.15;;;0.65;;
41446;SDS011;27185;52.040;4.490;2023-04-24T00:31:24;2.05;;;0.60;;
41446;SDS011;27185;52.040;4.490;2023-04-24T00:34:10;1.83;;;0.52;;
41446;SDS011;27185;52.040;4.490;2023-04-24T00:36:56;1.40;;;0.50;;
41446;SDS011;27185;52.040;4.490;2023-04-24T00:39:42;4.35;;;1.25;;
41446;SDS011;27185;52.040;4.490;2023-04-24T00:42:27;1.45;;;0.68;;
41446;SDS011;27185;52.040;4.490;2023-04-24T00:45:13;1.52;;;0.70;;
41446;SDS011;27185;52.040;4.490;2023-04-24T00:47:59;3.45;;;1.10;;
41446;SDS011;27185;52.040;4.490;2023-04-24T00:50:45;2.17;;;0.80;;
41446;SDS011;27185;52.040;4.490;2023-04-24T00:53:31;4.60;;;1.25;;
41446;SDS011;27185;52.040;4.490;2023-04-24T00:56:18;4.35;;;1.00;;
41446;SDS011;27185;52.040;4.490;2023-04-24T00:59:04;3.75;;;1.00;;
41446;SDS011;27185;52.040;4.490;2023-04-24T01:01:50;4.35;;;1.10;;
41446;SDS011;27185;52.040;4.490;2023-04-24T01:04:36;4.28;;;1.17;;
41446;SDS011;27185;52.040;4.490;2023-04-24T01:07:22;4.50;;;1.58;;
41446;SDS011;27185;52.040;4.490;2023-04-24T01:10:09;3.15;;;1.38;;
41446;SDS011;27185;52.040;4.490;2023-04-24T01:12:55;2.70;;;1.27;;
41446;SDS011;27185;52.040;4.490;2023-04-24T01:15:40;3.13;;;1.33;;
41446;SDS011;27185;52.040;4.490;2023-04-24T01:18:26;2.72;;;1.30;;
41446;SDS011;27185;52.040;4.490;2023-04-24T01:21:15;4.13;;;1.60;;
41446;SDS011;27185;52.040;4.490;2023-04-24T01:24:02;2.45;;;1.10;;
41446;SDS011;27185;52.040;4.490;2023-04-24T01:26:48;2.33;;;1.30;;
41446;SDS011;27185;52.040;4.490;2023-04-24T01:29:34;1.73;;;1.17;;
41446;SDS011;27185;52.040;4.490;2023-04-24T01:32:20;2.67;;;1.13;;
41446;SDS011;27185;52.040;4.490;2023-04-24T01:35:07;4.15;;;1.17;;
41446;SDS011;27185;52.040;4.490;2023-04-24T01:37:52;3.65;;;1.60;;
41446;SDS011;27185;52.040;4.490;2023-04-24T01:40:38;2.20;;;1.00;;
41446;SDS011;27185;52.040;4.490;2023-04-24T01:43:24;1.30;;;0.70;;
41446;SDS011;27185;52.040;4.490;2023-04-24T01:46:09;1.13;;;0.75;;
41446;SDS011;27185;52.040;4.490;2023-04-24T01:48:55;1.63;;;0.77;;
41446;SDS011;27185;52.040;4.490;2023-04-24T01:51:41;1.42;;;0.98;;
41446;SDS011;27185;52.040;4.490;2023-04-24T01:54:27;2.08;;;1.08;;
41446;SDS011;27185;52.040;4.490;2023-04-24T01:57:13;3.83;;;1.60;;
41446;SDS011;27185;52.040;4.490;2023-04-24T01:59:59;2.47;;;1.40;;
41446;SDS011;27185;52.040;4.490;2023-04-24T02:02:45;2.45;;;1.25;;
41446;SDS011;27185;52.040;4.490;2023-04-24T02:05:31;4.95;;;1.30;;
41446;SDS011;27185;52.040;4.490;2023-04-24T02:08:17;3.05;;;1.30;;
41446;SDS011;27185;52.040;4.490;2023-04-24T02:11:03;4.55;;;1.50;;
41446;SDS011;27185;52.040;4.490;2023-04-24T02:13:49;3.40;;;1.60;;
41446;SDS011;27185;52.040;4.490;2023-04-24T02:16:35;3.65;;;1.52;;
41446;SDS011;27185;52.040;4.490;2023-04-24T02:19:21;3.78;;;1.10;;
41446;SDS011;27185;52.040;4.490;2023-04-24T02:22:06;3.45;;;1.00;;
41446;SDS011;27185;52.040;4.490;2023-04-24T02:24:52;3.10;;;0.98;;
41446;SDS011;27185;52.040;4.490;2023-04-24T02:27:37;1.75;;;0.90;;
41446;SDS011;27185;52.040;4.490;2023-04-24T02:30:23;1.67;;;0.70;;
41446;SDS011;27185;52.040;4.490;2023-04-24T02:33:08;1.88;;;0.70;;
41446;SDS011;27185;52.040;4.490;2023-04-24T02:35:54;2.53;;;0.60;;
41446;SDS011;27185;52.040;4.490;2023-04-24T02:38:40;1.83;;;0.63;;
41446;SDS011;27185;52.040;4.490;2023-04-24T02:41:25;2.28;;;0.50;;
41446;SDS011;27185;52.040;4.490;2023-04-24T02:44:16;5.13;;;0.60;;
41446;SDS011;27185;52.040;4.490;2023-04-24T02:47:02;1.60;;;0.47;;
41446;SDS011;27185;52.040;4.490;2023-04-24T02:49:48;1.33;;;0.45;;
41446;SDS011;27185;52.040;4.490;2023-04-24T02:52:33;2.10;;;0.60;;
41446;SDS011;27185;52.040;4.490;2023-04-24T02:55:19;4.03;;;0.57;;
41446;SDS011;27185;52.040;4.490;2023-04-24T02:58:05;3.05;;;0.75;;
41446;SDS011;27185;52.040;4.490;2023-04-24T03:00:54;2.00;;;0.30;;
41446;SDS011;27185;52.040;4.490;2023-04-24T03:03:43;1.55;;;0.30;;
41446;SDS011;27185;52.040;4.490;2023-04-24T03:06:29;3.80;;;0.20;;
41446;SDS011;27185;52.040;4.490;2023-04-24T03:09:16;2.22;;;0.28;;
41446;SDS011;27185;52.040;4.490;2023-04-24T03:12:01;2.67;;;0.55;;
41446;SDS011;27185;52.040;4.490;2023-04-24T03:14:47;3.13;;;0.32;;
41446;SDS011;27185;52.040;4.490;2023-04-24T03:17:33;3.08;;;0.50;;
41446;SDS011;27185;52.040;4.490;2023-04-24T03:20:18;3.47;;;0.32;;
41446;SDS011;27185;52.040;4.490;2023-04-24T03:23:04;3.38;;;0.47;;
41446;SDS011;27185;52.040;4.490;2023-04-24T03:25:49;1.67;;;0.40;;
41446;SDS011;27185;52.040;4.490;2023-04-24T03:28:35;2.92;;;0.30;;
41446;SDS011;27185;52.040;4.490;2023-04-24T03:31:21;1.38;;;0.35;;
41446;SDS011;27185;52.040;4.490;2023-04-24T03:34:07;1.80;;;0.30;;
41446;SDS011;27185;52.040;4.490;2023-04-24T03:36:52;3.13;;;0.30;;
41446;SDS011;27185;52.040;4.490;2023-04-24T03:39:38;1.60;;;0.30;;
41446;SDS011;27185;52.040;4.490;2023-04-24T03:42:23;3.45;;;0.32;;
41446;SDS011;27185;52.040;4.490;2023-04-24T03:45:09;2.50;;;0.30;;
41446;SDS011;27185;52.040;4.490;2023-04-24T03:47:55;2.28;;;0.30;;
41446;SDS011;27185;52.040;4.490;2023-04-24T03:50:40;2.05;;;0.38;;
41446;SDS011;27185;52.040;4.490;2023-04-24T03:53:26;1.30;;;0.25;;
41446;SDS011;27185;52.040;4.490;2023-04-24T03:56:11;0.75;;;0.20;;
41446;SDS011;27185;52.040;4.490;2023-04-24T03:58:57;2.67;;;0.32;;
41446;SDS011;27185;52.040;4.490;2023-04-24T04:01:43;1.90;;;0.40;;
41446;SDS011;27185;52.040;4.490;2023-04-24T04:04:28;2.70;;;0.40;;
41446;SDS011;27185;52.040;4.490;2023-04-24T04:07:14;1.27;;;0.30;;
41446;SDS011;27185;52.040;4.490;2023-04-24T04:09:59;1.42;;;0.50;;
41446;SDS011;27185;52.040;4.490;2023-04-24T04:12:45;3.22;;;0.60;;
41446;SDS011;27185;52.040;4.490;2023-04-24T04:15:30;2.95;;;0.50;;
41446;SDS011;27185;52.040;4.490;2023-04-24T04:18:16;2.95;;;0.50;;
41446;SDS011;27185;52.040;4.490;2023-04-24T04:21:02;2.72;;;0.50;;
41446;SDS011;27185;52.040;4.490;2023-04-24T04:23:47;4.13;;;0.55;;
41446;SDS011;27185;52.040;4.490;2023-04-24T04:26:33;1.20;;;0.50;;
41446;SDS011;27185;52.040;4.490;2023-04-24T04:29:20;7.28;;;1.13;;
41446;SDS011;27185;52.040;4.490;2023-04-24T04:32:07;3.83;;;1.30;;
41446;SDS011;27185;52.040;4.490;2023-04-24T04:34:53;9.88;;;2.50;;
41446;SDS011;27185;52.040;4.490;2023-04-24T04:37:38;7.55;;;2.08;;
41446;SDS011;27185;52.040;4.490;2023-04-24T04:40:25;8.77;;;2.15;;
41446;SDS011;27185;52.040;4.490;2023-04-24T04:43:11;10.35;;;2.42;;
41446;SDS011;27185;52.040;4.490;2023-04-24T04:45:58;6.50;;;1.88;;
41446;SDS011;27185;52.040;4.490;2023-04-24T04:48:45;10.73;;;2.95;;
41446;SDS011;27185;52.040;4.490;2023-04-24T04:51:31;7.20;;;2.25;;
41446;SDS011;27185;52.040;4.490;2023-04-24T04:54:16;9.00;;;2.17;;
41446;SDS011;27185;52.040;4.490;2023-04-24T04:57:02;8.05;;;2.08;;
41446;SDS011;27185;52.040;4.490;2023-04-24T04:59:48;9.02;;;2.30;;
41446;SDS011;27185;52.040;4.490;2023-04-24T05:02:34;10.25;;;4.70;;
41446;SDS011;27185;52.040;4.490;2023-04-24T05:05:19;16.20;;;9.23;;
41446;SDS011;27185;52.040;4.490;2023-04-24T05:08:05;20.63;;;9.57;;
41446;SDS011;27185;52.040;4.490;2023-04-24T05:10:52;16.38;;;9.35;;
41446;SDS011;27185;52.040;4.490;2023-04-24T05:13:37;15.55;;;9.02;;
41446;SDS011;27185;52.040;4.490;2023-04-24T05:16:23;19.02;;;10.70;;
41446;SDS011;27185;52.040;4.490;2023-04-24T05:19:09;18.58;;;9.52;;
41446;SDS011;27185;52.040;4.490;2023-04-24T05:21:55;14.63;;;9.07;;
41446;SDS011;27185;52.040;4.490;2023-04-24T05:24:41;21.70;;;10.63;;
41446;SDS011;27185;52.040;4.490;2023-04-24T05:27:26;26.73;;;10.25;;
41446;SDS011;27185;52.040;4.490;2023-04-24T05:30:12;21.58;;;9.85;;
41446;SDS011;27185;52.040;4.490;2023-04-24T05:32:59;25.50;;;10.00;;
41446;SDS011;27185;52.040;4.490;2023-04-24T05:35:44;18.95;;;9.40;;
41446;SDS011;27185;52.040;4.490;2023-04-24T05:38:31;16.02;;;8.73;;
41446;SDS011;27185;52.040;4.490;2023-04-24T05:41:17;14.55;;;8.70;;
41446;SDS011;27185;52.040;4.490;2023-04-24T05:44:02;17.50;;;8.50;;
41446;SDS011;27185;52.040;4.490;2023-04-24T05:46:48;15.95;;;8.95;;
41446;SDS011;27185;52.040;4.490;2023-04-24T05:49:34;18.95;;;9.88;;
41446;SDS011;27185;52.040;4.490;2023-04-24T05:52:19;23.80;;;9.10;;
41446;SDS011;27185;52.040;4.490;2023-04-24T05:55:05;21.58;;;8.57;;
41446;SDS011;27185;52.040;4.490;2023-04-24T05:57:51;20.50;;;9.05;;
41446;SDS011;27185;52.040;4.490;2023-04-24T06:00:37;16.13;;;8.73;;
41446;SDS011;27185;52.040;4.490;2023-04-24T06:03:24;17.83;;;8.82;;
41446;SDS011;27185;52.040;4.490;2023-04-24T06:06:10;20.13;;;8.20;;
41446;SDS011;27185;52.040;4.490;2023-04-24T06:08:56;23.55;;;7.60;;
41446;SDS011;27185;52.040;4.490;2023-04-24T06:11:42;20.17;;;7.50;;
41446;SDS011;27185;52.040;4.490;2023-04-24T06:14:27;27.63;;;7.22;;
41446;SDS011;27185;52.040;4.490;2023-04-24T06:17:13;19.02;;;5.55;;
41446;SDS011;27185;52.040;4.490;2023-04-24T06:19:59;20.65;;;5.65;;
41446;SDS011;27185;52.040;4.490;2023-04-24T06:22:44;17.75;;;5.35;;
41446;SDS011;27185;52.040;4.490;2023-04-24T06:25:30;16.73;;;5.38;;
41446;SDS011;27185;52.040;4.490;2023-04-24T06:28:16;16.67;;;4.95;;
41446;SDS011;27185;52.040;4.490;2023-04-24T06:31:02;16.35;;;5.05;;
41446;SDS011;27185;52.040;4.490;2023-04-24T06:33:48;21.08;;;5.43;;
41446;SDS011;27185;52.040;4.490;2023-04-24T06:36:34;14.77;;;4.75;;
41446;SDS011;27185;52.040;4.490;2023-04-24T06:39:20;22.67;;;4.70;;
41446;SDS011;27185;52.040;4.490;2023-04-24T06:42:06;20.10;;;5.10;;
41446;SDS011;27185;52.040;4.490;2023-04-24T06:44:53;19.73;;;4.20;;
41446;SDS011;27185;52.040;4.490;2023-04-24T06:47:38;15.13;;;5.10;;
41446;SDS011;27185;52.040;4.490;2023-04-24T06:50:24;14.43;;;4.60;;
41446;SDS011;27185;52.040;4.490;2023-04-24T06:53:10;16.10;;;4.13;;
41446;SDS011;27185;52.040;4.490;2023-04-24T06:55:57;16.98;;;3.60;;
41446;SDS011;27185;52.040;4.490;2023-04-24T06:58:43;23.55;;;4.53;;
41446;SDS011;27185;52.040;4.490;2023-04-24T07:01:28;17.02;;;3.63;;
41446;SDS011;27185;52.040;4.490;2023-04-24T07:04:14;12.50;;;3.47;;
41446;SDS011;27185;52.040;4.490;2023-04-24T07:07:00;15.50;;;3.35;;
41446;SDS011;27185;52.040;4.490;2023-04-24T07:09:45;16.45;;;3.00;;
41446;SDS011;27185;52.040;4.490;2023-04-24T07:12:31;20.45;;;3.30;;
41446;SDS011;27185;52.040;4.490;2023-04-24T07:15:17;13.88;;;2.97;;
41446;SDS011;27185;52.040;4.490;2023-04-24T07:18:02;13.90;;;2.65;;
41446;SDS011;27185;52.040;4.490;2023-04-24T07:20:48;15.48;;;2.90;;
41446;SDS011;27185;52.040;4.490;2023-04-24T07:23:35;16.17;;;2.55;;
41446;SDS011;27185;52.040;4.490;2023-04-24T07:26:20;16.55;;;3.30;;
41446;SDS011;27185;52.040;4.490;2023-04-24T07:29:06;12.50;;;2.80;;
41446;SDS011;27185;52.040;4.490;2023-04-24T07:31:52;13.95;;;2.28;;
41446;SDS011;27185;52.040;4.490;2023-04-24T07:34:39;15.70;;;2.95;;
41446;SDS011;27185;52.040;4.490;2023-04-24T07:37:25;17.95;;;3.38;;
41446;SDS011;27185;52.040;4.490;2023-04-24T07:40:12;13.98;;;1.92;;
41446;SDS011;27185;52.040;4.490;2023-04-24T07:42:58;10.45;;;2.20;;
41446;SDS011;27185;52.040;4.490;2023-04-24T07:45:44;14.20;;;2.50;;
41446;SDS011;27185;52.040;4.490;2023-04-24T07:48:29;16.77;;;2.53;;
41446;SDS011;27185;52.040;4.490;2023-04-24T07:51:15;17.50;;;2.40;;
41446;SDS011;27185;52.040;4.490;2023-04-24T07:54:01;17.75;;;2.42;;
41446;SDS011;27185;52.040;4.490;2023-04-24T07:56:46;11.13;;;2.40;;
41446;SDS011;27185;52.040;4.490;2023-04-24T07:59:33;16.13;;;2.33;;
41446;SDS011;27185;52.040;4.490;2023-04-24T08:02:18;11.85;;;2.28;;
41446;SDS011;27185;52.040;4.490;2023-04-24T08:05:05;15.10;;;2.53;;
41446;SDS011;27185;52.040;4.490;2023-04-24T08:07:51;10.55;;;2.28;;
41446;SDS011;27185;52.040;4.490;2023-04-24T08:10:37;6.82;;;1.65;;
41446;SDS011;27185;52.040;4.490;2023-04-24T08:13:23;11.15;;;1.83;;
41446;SDS011;27185;52.040;4.490;2023-04-24T08:16:08;11.25;;;1.98;;
41446;SDS011;27185;52.040;4.490;2023-04-24T08:18:54;8.25;;;1.80;;
41446;SDS011;27185;52.040;4.490;2023-04-24T08:21:39;11.70;;;2.13;;
41446;SDS011;27185;52.040;4.490;2023-04-24T08:24:25;10.40;;;1.98;;
41446;SDS011;27185;52.040;4.490;2023-04-24T08:27:10;9.75;;;1.83;;
41446;SDS011;27185;52.040;4.490;2023-04-24T08:29:56;7.05;;;1.50;;
41446;SDS011;27185;52.040;4.490;2023-04-24T08:32:42;9.80;;;1.52;;
41446;SDS011;27185;52.040;4.490;2023-04-24T08:35:28;8.07;;;1.40;;
41446;SDS011;27185;52.040;4.490;2023-04-24T08:38:14;12.20;;;1.75;;
41446;SDS011;27185;52.040;4.490;2023-04-24T08:41:00;8.80;;;1.52;;
41446;SDS011;27185;52.040;4.490;2023-04-24T08:43:46;13.73;;;2.30;;
41446;SDS011;27185;52.040;4.490;2023-04-24T08:46:33;15.55;;;2.15;;
41446;SDS011;27185;52.040;4.490;2023-04-24T08:49:19;14.25;;;1.60;;
41446;SDS011;27185;52.040;4.490;2023-04-24T08:52:06;6.75;;;1.10;;
41446;SDS011;27185;52.040;4.490;2023-04-24T08:54:52;7.90;;;1.10;;
41446;SDS011;27185;52.040;4.490;2023-04-24T08:57:38;8.90;;;1.23;;
41446;SDS011;27185;52.040;4.490;2023-04-24T09:00:25;9.38;;;1.27;;
41446;SDS011;27185;52.040;4.490;2023-04-24T09:03:11;4.45;;;0.80;;
41446;SDS011;27185;52.040;4.490;2023-04-24T09:05:57;5.78;;;0.60;;
41446;SDS011;27185;52.040;4.490;2023-04-24T09:08:45;5.50;;;0.73;;
41446;SDS011;27185;52.040;4.490;2023-04-24T09:11:32;8.35;;;1.13;;
41446;SDS011;27185;52.040;4.490;2023-04-24T09:14:18;4.65;;;1.10;;
41446;SDS011;27185;52.040;4.490;2023-04-24T09:17:06;8.77;;;0.80;;
41446;SDS011;27185;52.040;4.490;2023-04-24T09:19:51;4.10;;;0.63;;
41446;SDS011;27185;52.040;4.490;2023-04-24T09:22:37;5.10;;;0.70;;
41446;SDS011;27185;52.040;4.490;2023-04-24T09:25:25;4.03;;;0.93;;
41446;SDS011;27185;52.040;4.490;2023-04-24T09:28:18;6.35;;;0.90;;
41446;SDS011;27185;52.040;4.490;2023-04-24T09:33:56;6.90;;;0.60;;
41446;SDS011;27185;52.040;4.490;2023-04-24T09:36:45;6.00;;;1.10;;
41446;SDS011;27185;52.040;4.490;2023-04-24T09:39:31;7.90;;;0.93;;
41446;SDS011;27185;52.040;4.490;2023-04-24T09:42:17;6.45;;;0.80;;
41446;SDS011;27185;52.040;4.490;2023-04-24T09:45:02;4.13;;;0.73;;
41446;SDS011;27185;52.040;4.490;2023-04-24T09:47:52;7.57;;;0.90;;
41446;SDS011;27185;52.040;4.490;2023-04-24T09:50:40;7.05;;;0.63;;
41446;SDS011;27185;52.040;4.490;2023-04-24T09:53:31;4.05;;;0.90;;
41446;SDS011;27185;52.040;4.490;2023-04-24T09:56:16;7.82;;;1.15;;
41446;SDS011;27185;52.040;4.490;2023-04-24T09:59:06;5.93;;;0.80;;
41446;SDS011;27185;52.040;4.490;2023-04-24T10:01:52;8.88;;;1.25;;
41446;SDS011;27185;52.040;4.490;2023-04-24T10:04:38;7.63;;;0.73;;
41446;SDS011;27185;52.040;4.490;2023-04-24T10:07:25;6.93;;;0.85;;
41446;SDS011;27185;52.040;4.490;2023-04-24T10:10:11;5.50;;;0.68;;
41446;SDS011;27185;52.040;4.490;2023-04-24T10:12:57;4.78;;;0.60;;
41446;SDS011;27185;52.040;4.490;2023-04-24T10:15:43;3.78;;;0.52;;
41446;SDS011;27185;52.040;4.490;2023-04-24T10:18:29;3.42;;;0.40;;
41446;SDS011;27185;52.040;4.490;2023-04-24T10:21:16;2.75;;;0.57;;
41446;SDS011;27185;52.040;4.490;2023-04-24T10:24:02;4.40;;;0.50;;
41446;SDS011;27185;52.040;4.490;2023-04-24T10:26:52;4.85;;;0.55;;
41446;SDS011;27185;52.040;4.490;2023-04-24T10:29:38;6.32;;;0.93;;
41446;SDS011;27185;52.040;4.490;2023-04-24T10:32:25;7.80;;;0.70;;
41446;SDS011;27185;52.040;4.490;2023-04-24T10:35:11;3.78;;;0.95;;
41446;SDS011;27185;52.040;4.490;2023-04-24T10:38:00;8.65;;;1.00;;
41446;SDS011;27185;52.040;4.490;2023-04-24T10:40:46;3.53;;;1.05;;
41446;SDS011;27185;52.040;4.490;2023-04-24T10:43:32;6.68;;;0.80;;
41446;SDS011;27185;52.040;4.490;2023-04-24T10:46:21;6.07;;;1.00;;
41446;SDS011;27185;52.040;4.490;2023-04-24T10:49:07;7.85;;;1.50;;
41446;SDS011;27185;52.040;4.490;2023-04-24T10:51:54;3.47;;;0.85;;
41446;SDS011;27185;52.040;4.490;2023-04-24T10:54:45;7.72;;;0.77;;
41446;SDS011;27185;52.040;4.490;2023-04-24T10:57:31;7.07;;;0.80;;
41446;SDS011;27185;52.040;4.490;2023-04-24T11:00:21;5.35;;;0.60;;
41446;SDS011;27185;52.040;4.490;2023-04-24T11:03:25;6.32;;;0.60;;
41446;SDS011;27185;52.040;4.490;2023-04-24T11:06:13;6.10;;;0.55;;
41446;SDS011;27185;52.040;4.490;2023-04-24T11:09:06;1.73;;;0.30;;
41446;SDS011;27185;52.040;4.490;2023-04-24T11:11:53;4.32;;;0.50;;
41446;SDS011;27185;52.040;4.490;2023-04-24T11:17:45;1.92;;;0.47;;
41446;SDS011;27185;52.040;4.490;2023-04-24T11:20:31;3.53;;;0.40;;
41446;SDS011;27185;52.040;4.490;2023-04-24T11:23:17;4.80;;;0.50;;
41446;SDS011;27185;52.040;4.490;2023-04-24T11:26:10;6.18;;;0.98;;
41446;SDS011;27185;52.040;4.490;2023-04-24T11:29:05;7.65;;;0.60;;
41446;SDS011;27185;52.040;4.490;2023-04-24T11:31:53;9.65;;;0.80;;
41446;SDS011;27185;52.040;4.490;2023-04-24T11:34:38;5.15;;;0.70;;
41446;SDS011;27185;52.040;4.490;2023-04-24T11:37:26;5.40;;;0.80;;
41446;SDS011;27185;52.040;4.490;2023-04-24T11:40:13;8.63;;;0.90;;
41446;SDS011;27185;52.040;4.490;2023-04-24T11:43:01;6.35;;;1.02;;
41446;SDS011;27185;52.040;4.490;2023-04-24T11:45:49;7.93;;;0.90;;
41446;SDS011;27185;52.040;4.490;2023-04-24T11:48:34;7.80;;;1.40;;
41446;SDS011;27185;52.040;4.490;2023-04-24T11:51:22;6.60;;;1.20;;
41446;SDS011;27185;52.040;4.490;2023-04-24T11:54:10;8.82;;;1.33;;
41446;SDS011;27185;52.040;4.490;2023-04-24T11:56:56;9.82;;;1.05;;
41446;SDS011;27185;52.040;4.490;2023-04-24T11:59:42;9.00;;;1.10;;
41446;SDS011;27185;52.040;4.490;2023-04-24T12:02:28;11.38;;;1.67;;
41446;SDS011;27185;52.040;4.490;2023-04-24T12:05:23;6.32;;;1.27;;
41446;SDS011;27185;52.040;4.490;2023-04-24T12:08:12;10.10;;;1.42;;
41446;SDS011;27185;52.040;4.490;2023-04-24T12:11:15;14.48;;;2.20;;
41446;SDS011;27185;52.040;4.490;2023-04-24T12:14:09;12.27;;;1.73;;
41446;SDS011;27185;52.040;4.490;2023-04-24T12:16:56;9.35;;;1.35;;
41446;SDS011;27185;52.040;4.490;2023-04-24T12:19:45;9.00;;;1.75;;
41446;SDS011;27185;52.040;4.490;2023-04-24T12:25:34;14.27;;;1.88;;
41446;SDS011;27185;52.040;4.490;2023-04-24T12:28:20;10.68;;;1.75;;
41446;SDS011;27185;52.040;4.490;2023-04-24T12:31:06;8.23;;;1.75;;
41446;SDS011;27185;52.040;4.490;2023-04-24T12:33:52;13.27;;;1.85;;
41446;SDS011;27185;52.040;4.490;2023-04-24T12:36:37;14.18;;;1.83;;
41446;SDS011;27185;52.040;4.490;2023-04-24T12:39:23;13.75;;;2.40;;
41446;SDS011;27185;52.040;4.490;2023-04-24T12:44:57;7.13;;;1.35;;
41446;SDS011;27185;52.040;4.490;2023-04-24T12:47:50;12.00;;;1.58;;
41446;SDS011;27185;52.040;4.490;2023-04-24T12:50:36;8.65;;;2.00;;
41446;SDS011;27185;52.040;4.490;2023-04-24T12:53:23;15.40;;;1.73;;
41446;SDS011;27185;52.040;4.490;2023-04-24T12:58:57;12.45;;;2.38;;
41446;SDS011;27185;52.040;4.490;2023-04-24T13:01:42;10.75;;;2.15;;
41446;SDS011;27185;52.040;4.490;2023-04-24T13:04:28;10.43;;;1.90;;
41446;SDS011;27185;52.040;4.490;2023-04-24T13:07:13;11.43;;;1.85;;
41446;SDS011;27185;52.040;4.490;2023-04-24T13:09:59;17.38;;;3.00;;
41446;SDS011;27185;52.040;4.490;2023-04-24T13:12:45;13.38;;;2.30;;
41446;SDS011;27185;52.040;4.490;2023-04-24T13:15:31;14.02;;;2.70;;
41446;SDS011;27185;52.040;4.490;2023-04-24T13:18:16;10.38;;;2.15;;
41446;SDS011;27185;52.040;4.490;2023-04-24T13:21:02;6.75;;;1.45;;
41446;SDS011;27185;52.040;4.490;2023-04-24T13:23:48;10.35;;;1.80;;
41446;SDS011;27185;52.040;4.490;2023-04-24T13:26:34;10.65;;;2.10;;
41446;SDS011;27185;52.040;4.490;2023-04-24T13:29:20;12.25;;;1.75;;
41446;SDS011;27185;52.040;4.490;2023-04-24T13:32:05;6.95;;;1.40;;
41446;SDS011;27185;52.040;4.490;2023-04-24T13:34:51;7.45;;;1.45;;
41446;SDS011;27185;52.040;4.490;2023-04-24T13:37:37;9.02;;;1.85;;
41446;SDS011;27185;52.040;4.490;2023-04-24T13:40:22;8.05;;;1.63;;
41446;SDS011;27185;52.040;4.490;2023-04-24T13:43:08;8.23;;;1.85;;
41446;SDS011;27185;52.040;4.490;2023-04-24T13:45:54;10.02;;;1.65;;
41446;SDS011;27185;52.040;4.490;2023-04-24T13:48:39;9.05;;;2.40;;
41446;SDS011;27185;52.040;4.490;2023-04-24T13:51:25;12.57;;;2.28;;
41446;SDS011;27185;52.040;4.490;2023-04-24T13:54:14;8.13;;;2.38;;
41446;SDS011;27185;52.040;4.490;2023-04-24T13:56:59;10.57;;;2.17;;
41446;SDS011;27185;52.040;4.490;2023-04-24T13:59:46;5.80;;;2.08;;
41446;SDS011;27185;52.040;4.490;2023-04-24T14:02:31;14.55;;;2.60;;
41446;SDS011;27185;52.040;4.490;2023-04-24T14:05:17;12.90;;;3.13;;
41446;SDS011;27185;52.040;4.490;2023-04-24T14:08:03;9.68;;;2.30;;
41446;SDS011;27185;52.040;4.490;2023-04-24T14:10:49;12.20;;;3.10;;
41446;SDS011;27185;52.040;4.490;2023-04-24T14:13:36;12.70;;;2.65;;
41446;SDS011;27185;52.040;4.490;2023-04-24T14:16:25;10.30;;;3.13;;
41446;SDS011;27185;52.040;4.490;2023-04-24T14:19:10;17.17;;;3.17;;
41446;SDS011;27185;52.040;4.490;2023-04-24T14:21:56;15.13;;;3.17;;
41446;SDS011;27185;52.040;4.490;2023-04-24T14:24:43;15.02;;;4.07;;
41446;SDS011;27185;52.040;4.490;2023-04-24T14:27:28;11.15;;;3.20;;
41446;SDS011;27185;52.040;4.490;2023-04-24T14:30:15;12.55;;;3.33;;
41446;SDS011;27185;52.040;4.490;2023-04-24T14:33:01;13.45;;;3.83;;
41446;SDS011;27185;52.040;4.490;2023-04-24T14:35:47;15.95;;;3.90;;
41446;SDS011;27185;52.040;4.490;2023-04-24T14:38:33;20.15;;;3.92;;
41446;SDS011;27185;52.040;4.490;2023-04-24T14:41:19;15.18;;;3.00;;
41446;SDS011;27185;52.040;4.490;2023-04-24T14:44:05;13.70;;;3.55;;
41446;SDS011;27185;52.040;4.490;2023-04-24T14:46:51;22.30;;;3.97;;
41446;SDS011;27185;52.040;4.490;2023-04-24T14:49:36;16.45;;;3.58;;
41446;SDS011;27185;52.040;4.490;2023-04-24T14:52:22;13.13;;;3.28;;
41446;SDS011;27185;52.040;4.490;2023-04-24T14:55:08;15.75;;;3.22;;
41446;SDS011;27185;52.040;4.490;2023-04-24T14:57:54;15.18;;;3.28;;
41446;SDS011;27185;52.040;4.490;2023-04-24T15:00:40;12.63;;;3.60;;
41446;SDS011;27185;52.040;4.490;2023-04-24T15:03:26;10.52;;;2.60;;
41446;SDS011;27185;52.040;4.490;2023-04-24T15:06:11;12.32;;;3.70;;
41446;SDS011;27185;52.040;4.490;2023-04-24T15:08:57;13.88;;;3.15;;
41446;SDS011;27185;52.040;4.490;2023-04-24T15:11:43;15.85;;;3.00;;
41446;SDS011;27185;52.040;4.490;2023-04-24T15:14:28;17.02;;;3.58;;
41446;SDS011;27185;52.040;4.490;2023-04-24T15:17:14;15.52;;;3.25;;
41446;SDS011;27185;52.040;4.490;2023-04-24T15:20:00;13.30;;;2.72;;
41446;SDS011;27185;52.040;4.490;2023-04-24T15:22:45;16.67;;;3.35;;
41446;SDS011;27185;52.040;4.490;2023-04-24T15:25:31;11.25;;;3.05;;
41446;SDS011;27185;52.040;4.490;2023-04-24T15:28:17;10.80;;;3.25;;
41446;SDS011;27185;52.040;4.490;2023-04-24T15:31:02;14.40;;;3.70;;
41446;SDS011;27185;52.040;4.490;2023-04-24T15:33:48;15.20;;;3.58;;
41446;SDS011;27185;52.040;4.490;2023-04-24T15:36:34;12.68;;;3.55;;
41446;SDS011;27185;52.040;4.490;2023-04-24T15:39:23;15.18;;;3.00;;
41446;SDS011;27185;52.040;4.490;2023-04-24T15:42:09;15.50;;;3.45;;
41446;SDS011;27185;52.040;4.490;2023-04-24T15:44:55;13.18;;;2.92;;
41446;SDS011;27185;52.040;4.490;2023-04-24T15:47:40;11.63;;;2.78;;
41446;SDS011;27185;52.040;4.490;2023-04-24T15:50:26;8.32;;;2.92;;
41446;SDS011;27185;52.040;4.490;2023-04-24T15:53:11;8.05;;;2.42;;
41446;SDS011;27185;52.040;4.490;2023-04-24T15:55:57;10.30;;;2.83;;
41446;SDS011;27185;52.040;4.490;2023-04-24T15:58:43;9.40;;;2.33;;
41446;SDS011;27185;52.040;4.490;2023-04-24T16:01:29;12.32;;;2.65;;
41446;SDS011;27185;52.040;4.490;2023-04-24T16:04:15;11.15;;;2.25;;
41446;SDS011;27185;52.040;4.490;2023-04-24T16:07:01;12.32;;;3.22;;
41446;SDS011;27185;52.040;4.490;2023-04-24T16:09:46;11.63;;;3.00;;
41446;SDS011;27185;52.040;4.490;2023-04-24T16:12:32;12.38;;;2.88;;
41446;SDS011;27185;52.040;4.490;2023-04-24T16:15:18;14.32;;;3.28;;
41446;SDS011;27185;52.040;4.490;2023-04-24T16:18:03;7.95;;;2.25;;
41446;SDS011;27185;52.040;4.490;2023-04-24T16:20:49;8.52;;;2.72;;
41446;SDS011;27185;52.040;4.490;2023-04-24T16:23:35;15.75;;;3.17;;
41446;SDS011;27185;52.040;4.490;2023-04-24T16:26:20;13.38;;;2.35;;
41446;SDS011;27185;52.040;4.490;2023-04-24T16:29:06;16.40;;;3.58;;
41446;SDS011;27185;52.040;4.490;2023-04-24T16:31:52;14.00;;;4.07;;
41446;SDS011;27185;52.040;4.490;2023-04-24T16:34:37;16.42;;;4.05;;
41446;SDS011;27185;52.040;4.490;2023-04-24T16:37:23;10.23;;;2.78;;
41446;SDS011;27185;52.040;4.490;2023-04-24T16:40:08;11.68;;;3.10;;
41446;SDS011;27185;52.040;4.490;2023-04-24T16:42:54;11.48;;;3.40;;
41446;SDS011;27185;52.040;4.490;2023-04-24T16:45:40;14.57;;;3.80;;
41446;SDS011;27185;52.040;4.490;2023-04-24T16:48:26;12.50;;;3.58;;